sensor_id;sensor_type;location;lat;lon;timestamp;P1;durP1;ratioP1;P2;durP2;ratioP2
11651;SDS011;5882;48.818;9.114;2023-04-16T00:02:19;5.43;;;4.30;;
11651;SDS011;5882;48.818;9.114;2023-04-16T00:05:05;4.88;;;4.35;;
11651;SDS011;5882;48.818;9.114;2023-04-16T00:07:52;4.82;;;3.65;;
11651;SDS011;5882;48.818;9.114;2023-04-16T00:10:37;5.00;;;4.50;;
11651;SDS011;5882;48.818;9.114;2023-04-16T00:13:22;4.45;;;3.53;;
11651;SDS011;5882;48.818;9.114;2023-04-16T00:16:08;5.32;;;4.32;;
11651;SDS011;5882;48.818;9.114;2023-04-16T00:18:53;4.68;;;3.97;;
11651;SDS011;5882;48.818;9.114;2023-04-16T00:21:38;4.57;;;3.92;;
11651;SDS011;5882;48.818;9.114;2023-04-16T00:24:25;5.10;;;4.45;;
11651;SDS011;5882;48.818;9.114;2023-04-16T00:27:10;4.95;;;4.45;;
11651;SDS011;5882;48.818;9.114;2023-04-16T00:29:54;5.85;;;4.68;;
11651;SDS011;5882;48.818;9.114;2023-04-16T00:32:39;4.78;;;4.05;;
11651;SDS011;5882;48.818;9.114;2023-04-16T00:35:24;4.80;;;4.30;;
11651;SDS011;5882;48.818;9.114;2023-04-16T00:38:09;5.13;;;3.95;;
11651;SDS011;5882;48.818;9.114;2023-04-16T00:40:56;5.05;;;4.18;;
11651;SDS011;5882;48.818;9.114;2023-04-16T00:43:41;5.38;;;4.05;;
11651;SDS011;5882;48.818;9.114;2023-04-16T00:46:26;5.95;;;4.30;;
11651;SDS011;5882;48.818;9.114;2023-04-16T00:49:11;4.80;;;3.78;;
11651;SDS011;5882;48.818;9.114;2023-04-16T00:51:56;5.13;;;4.03;;
11651;SDS011;5882;48.818;9.114;2023-04-16T00:54:41;4.60;;;4.18;;
11651;SDS011;5882;48.818;9.114;2023-04-16T00:57:28;4.32;;;3.85;;
11651;SDS011;5882;48.818;9.114;2023-04-16T01:00:13;4.82;;;3.97;;
11651;SDS011;5882;48.818;9.114;2023-04-16T01:02:58;5.05;;;3.85;;
11651;SDS011;5882;48.818;9.114;2023-04-16T01:05:43;5.05;;;4.15;;
11651;SDS011;5882;48.818;9.114;2023-04-16T01:08:32;4.68;;;3.97;;
11651;SDS011;5882;48.818;9.114;2023-04-16T01:11:17;4.80;;;4.30;;
11651;SDS011;5882;48.818;9.114;2023-04-16T01:14:03;5.00;;;4.35;;
11651;SDS011;5882;48.818;9.114;2023-04-16T01:16:48;4.63;;;4.13;;
11651;SDS011;5882;48.818;9.114;2023-04-16T01:19:33;5.93;;;3.72;;
11651;SDS011;5882;48.818;9.114;2023-04-16T01:22:21;4.05;;;3.65;;
11651;SDS011;5882;48.818;9.114;2023-04-16T01:25:06;4.30;;;3.90;;
11651;SDS011;5882;48.818;9.114;2023-04-16T01:27:51;5.03;;;4.07;;
11651;SDS011;5882;48.818;9.114;2023-04-16T01:30:37;4.38;;;3.97;;
11651;SDS011;5882;48.818;9.114;2023-04-16T01:33:22;4.65;;;3.55;;
11651;SDS011;5882;48.818;9.114;2023-04-16T01:36:07;4.00;;;3.45;;
11651;SDS011;5882;48.818;9.114;2023-04-16T01:38:53;4.75;;;3.85;;
11651;SDS011;5882;48.818;9.114;2023-04-16T01:41:38;3.70;;;3.05;;
11651;SDS011;5882;48.818;9.114;2023-04-16T01:44:23;4.13;;;3.35;;
11651;SDS011;5882;48.818;9.114;2023-04-16T01:47:09;4.30;;;3.80;;
11651;SDS011;5882;48.818;9.114;2023-04-16T01:49:54;3.55;;;3.08;;
11651;SDS011;5882;48.818;9.114;2023-04-16T01:52:39;3.53;;;2.85;;
11651;SDS011;5882;48.818;9.114;2023-04-16T01:55:25;3.55;;;3.25;;
11651;SDS011;5882;48.818;9.114;2023-04-16T01:58:10;3.47;;;3.17;;
11651;SDS011;5882;48.818;9.114;2023-04-16T02:00:57;3.60;;;2.90;;
11651;SDS011;5882;48.818;9.114;2023-04-16T02:03:42;4.07;;;3.63;;
11651;SDS011;5882;48.818;9.114;2023-04-16T02:06:27;4.35;;;3.58;;
11651;SDS011;5882;48.818;9.114;2023-04-16T02:09:12;3.72;;;3.42;;
11651;SDS011;5882;48.818;9.114;2023-04-16T02:11:58;3.92;;;3.55;;
11651;SDS011;5882;48.818;9.114;2023-04-16T02:14:45;4.60;;;3.05;;
11651;SDS011;5882;48.818;9.114;2023-04-16T02:17:30;4.22;;;3.63;;
11651;SDS011;5882;48.818;9.114;2023-04-16T02:20:15;4.85;;;3.80;;
11651;SDS011;5882;48.818;9.114;2023-04-16T02:23:00;3.70;;;3.38;;
11651;SDS011;5882;48.818;9.114;2023-04-16T02:25:45;4.30;;;3.90;;
11651;SDS011;5882;48.818;9.114;2023-04-16T02:28:32;4.60;;;3.92;;
11651;SDS011;5882;48.818;9.114;2023-04-16T02:31:17;4.43;;;3.63;;
11651;SDS011;5882;48.818;9.114;2023-04-16T02:34:03;3.60;;;3.20;;
11651;SDS011;5882;48.818;9.114;2023-04-16T02:36:48;4.53;;;3.85;;
11651;SDS011;5882;48.818;9.114;2023-04-16T02:39:33;4.80;;;4.05;;
11651;SDS011;5882;48.818;9.114;2023-04-16T02:42:18;4.82;;;3.60;;
11651;SDS011;5882;48.818;9.114;2023-04-16T02:45:05;4.30;;;3.90;;
11651;SDS011;5882;48.818;9.114;2023-04-16T02:47:50;4.68;;;3.88;;
11651;SDS011;5882;48.818;9.114;2023-04-16T02:50:35;4.40;;;3.55;;
11651;SDS011;5882;48.818;9.114;2023-04-16T02:53:20;3.92;;;3.33;;
11651;SDS011;5882;48.818;9.114;2023-04-16T02:56:05;4.80;;;4.05;;
11651;SDS011;5882;48.818;9.114;2023-04-16T02:58:51;3.92;;;3.47;;
11651;SDS011;5882;48.818;9.114;2023-04-16T03:01:37;5.55;;;4.28;;
11651;SDS011;5882;48.818;9.114;2023-04-16T03:04:22;5.47;;;4.25;;
11651;SDS011;5882;48.818;9.114;2023-04-16T03:07:07;5.72;;;4.28;;
11651;SDS011;5882;48.818;9.114;2023-04-16T03:09:53;5.20;;;4.25;;
11651;SDS011;5882;48.818;9.114;2023-04-16T03:12:38;6.53;;;4.28;;
11651;SDS011;5882;48.818;9.114;2023-04-16T03:15:23;4.63;;;3.67;;
11651;SDS011;5882;48.818;9.114;2023-04-16T03:18:10;6.25;;;4.43;;
11651;SDS011;5882;48.818;9.114;2023-04-16T03:20:55;5.07;;;4.10;;
11651;SDS011;5882;48.818;9.114;2023-04-16T03:23:41;4.50;;;3.70;;
11651;SDS011;5882;48.818;9.114;2023-04-16T03:26:26;5.68;;;4.57;;
11651;SDS011;5882;48.818;9.114;2023-04-16T03:29:10;3.90;;;3.53;;
11651;SDS011;5882;48.818;9.114;2023-04-16T03:31:55;5.90;;;4.68;;
11651;SDS011;5882;48.818;9.114;2023-04-16T03:34:42;4.65;;;4.18;;
11651;SDS011;5882;48.818;9.114;2023-04-16T03:37:27;6.10;;;4.15;;
11651;SDS011;5882;48.818;9.114;2023-04-16T03:40:13;4.35;;;3.70;;
11651;SDS011;5882;48.818;9.114;2023-04-16T03:42:58;4.43;;;3.72;;
11651;SDS011;5882;48.818;9.114;2023-04-16T03:45:43;5.82;;;4.35;;
11651;SDS011;5882;48.818;9.114;2023-04-16T03:48:28;5.05;;;3.92;;
11651;SDS011;5882;48.818;9.114;2023-04-16T03:51:14;6.35;;;3.83;;
11651;SDS011;5882;48.818;9.114;2023-04-16T03:53:59;7.28;;;4.50;;
11651;SDS011;5882;48.818;9.114;2023-04-16T03:56:44;4.50;;;3.67;;
11651;SDS011;5882;48.818;9.114;2023-04-16T03:59:29;5.68;;;3.95;;
11651;SDS011;5882;48.818;9.114;2023-04-16T04:02:14;6.80;;;4.30;;
11651;SDS011;5882;48.818;9.114;2023-04-16T04:04:59;5.80;;;3.72;;
11651;SDS011;5882;48.818;9.114;2023-04-16T04:07:45;5.85;;;4.47;;
11651;SDS011;5882;48.818;9.114;2023-04-16T04:10:31;5.30;;;3.70;;
11651;SDS011;5882;48.818;9.114;2023-04-16T04:13:16;5.03;;;4.03;;
11651;SDS011;5882;48.818;9.114;2023-04-16T04:16:01;4.90;;;3.97;;
11651;SDS011;5882;48.818;9.114;2023-04-16T04:18:46;5.38;;;4.30;;
11651;SDS011;5882;48.818;9.114;2023-04-16T04:21:31;6.00;;;4.32;;
11651;SDS011;5882;48.818;9.114;2023-04-16T04:24:17;4.38;;;3.60;;
11651;SDS011;5882;48.818;9.114;2023-04-16T04:27:03;4.38;;;3.95;;
11651;SDS011;5882;48.818;9.114;2023-04-16T04:29:48;4.43;;;3.63;;
11651;SDS011;5882;48.818;9.114;2023-04-16T04:32:33;5.03;;;3.53;;
11651;SDS011;5882;48.818;9.114;2023-04-16T04:35:17;5.28;;;4.00;;
11651;SDS011;5882;48.818;9.114;2023-04-16T04:38:03;6.25;;;4.28;;
11651;SDS011;5882;48.818;9.114;2023-04-16T04:40:50;5.15;;;3.92;;
11651;SDS011;5882;48.818;9.114;2023-04-16T04:43:35;4.50;;;3.20;;
11651;SDS011;5882;48.818;9.114;2023-04-16T04:46:20;6.55;;;3.75;;
11651;SDS011;5882;48.818;9.114;2023-04-16T04:49:05;4.30;;;3.63;;
11651;SDS011;5882;48.818;9.114;2023-04-16T04:51:51;5.97;;;4.35;;
11651;SDS011;5882;48.818;9.114;2023-04-16T04:54:36;5.25;;;3.85;;
11651;SDS011;5882;48.818;9.114;2023-04-16T04:57:25;4.45;;;3.83;;
11651;SDS011;5882;48.818;9.114;2023-04-16T05:00:10;5.07;;;3.38;;
11651;SDS011;5882;48.818;9.114;2023-04-16T05:02:56;4.18;;;3.47;;
11651;SDS011;5882;48.818;9.114;2023-04-16T05:05:41;5.28;;;3.95;;
11651;SDS011;5882;48.818;9.114;2023-04-16T05:08:25;3.90;;;3.40;;
11651;SDS011;5882;48.818;9.114;2023-04-16T05:11:10;4.60;;;3.35;;
11651;SDS011;5882;48.818;9.114;2023-04-16T05:13:57;5.50;;;3.80;;
11651;SDS011;5882;48.818;9.114;2023-04-16T05:16:42;5.78;;;4.32;;
11651;SDS011;5882;48.818;9.114;2023-04-16T05:19:27;6.65;;;4.68;;
11651;SDS011;5882;48.818;9.114;2023-04-16T05:22:12;7.15;;;5.38;;
11651;SDS011;5882;48.818;9.114;2023-04-16T05:24:57;6.88;;;4.95;;
11651;SDS011;5882;48.818;9.114;2023-04-16T05:27:42;6.55;;;4.75;;
11651;SDS011;5882;48.818;9.114;2023-04-16T05:30:28;8.40;;;5.22;;
11651;SDS011;5882;48.818;9.114;2023-04-16T05:33:13;8.23;;;5.57;;
11651;SDS011;5882;48.818;9.114;2023-04-16T05:35:58;8.30;;;5.68;;
11651;SDS011;5882;48.818;9.114;2023-04-16T05:38:43;8.35;;;5.78;;
11651;SDS011;5882;48.818;9.114;2023-04-16T05:41:28;7.95;;;6.07;;
11651;SDS011;5882;48.818;9.114;2023-04-16T05:44:13;9.65;;;6.30;;
11651;SDS011;5882;48.818;9.114;2023-04-16T05:47:00;8.88;;;6.13;;
11651;SDS011;5882;48.818;9.114;2023-04-16T05:49:45;8.15;;;6.05;;
11651;SDS011;5882;48.818;9.114;2023-04-16T05:52:30;9.70;;;6.80;;
11651;SDS011;5882;48.818;9.114;2023-04-16T05:55:15;9.13;;;6.70;;
11651;SDS011;5882;48.818;9.114;2023-04-16T05:58:00;7.93;;;5.88;;
11651;SDS011;5882;48.818;9.114;2023-04-16T06:00:47;10.80;;;6.97;;
11651;SDS011;5882;48.818;9.114;2023-04-16T06:03:33;10.00;;;6.63;;
11651;SDS011;5882;48.818;9.114;2023-04-16T06:06:18;8.65;;;6.07;;
11651;SDS011;5882;48.818;9.114;2023-04-16T06:09:04;10.38;;;6.78;;
11651;SDS011;5882;48.818;9.114;2023-04-16T06:11:48;10.52;;;6.22;;
11651;SDS011;5882;48.818;9.114;2023-04-16T06:14:33;9.18;;;6.30;;
11651;SDS011;5882;48.818;9.114;2023-04-16T06:17:19;9.38;;;6.22;;
11651;SDS011;5882;48.818;9.114;2023-04-16T06:20:06;10.85;;;7.10;;
11651;SDS011;5882;48.818;9.114;2023-04-16T06:22:51;10.43;;;6.38;;
11651;SDS011;5882;48.818;9.114;2023-04-16T06:25:36;9.48;;;6.63;;
11651;SDS011;5882;48.818;9.114;2023-04-16T06:28:21;9.20;;;6.78;;
11651;SDS011;5882;48.818;9.114;2023-04-16T06:31:06;9.95;;;6.72;;
11651;SDS011;5882;48.818;9.114;2023-04-16T06:33:51;10.73;;;6.43;;
11651;SDS011;5882;48.818;9.114;2023-04-16T06:36:38;11.07;;;6.43;;
11651;SDS011;5882;48.818;9.114;2023-04-16T06:39:23;8.07;;;6.43;;
11651;SDS011;5882;48.818;9.114;2023-04-16T06:42:08;9.38;;;5.38;;
11651;SDS011;5882;48.818;9.114;2023-04-16T06:44:53;8.88;;;6.55;;
11651;SDS011;5882;48.818;9.114;2023-04-16T06:47:38;11.52;;;7.65;;
11651;SDS011;5882;48.818;9.114;2023-04-16T06:50:23;9.15;;;6.50;;
11651;SDS011;5882;48.818;9.114;2023-04-16T06:53:10;11.73;;;7.20;;
11651;SDS011;5882;48.818;9.114;2023-04-16T06:55:55;9.43;;;6.57;;
11651;SDS011;5882;48.818;9.114;2023-04-16T06:58:40;8.90;;;6.20;;
11651;SDS011;5882;48.818;9.114;2023-04-16T07:01:25;9.52;;;6.70;;
11651;SDS011;5882;48.818;9.114;2023-04-16T07:04:10;10.35;;;6.45;;
11651;SDS011;5882;48.818;9.114;2023-04-16T07:06:55;10.43;;;6.93;;
11651;SDS011;5882;48.818;9.114;2023-04-16T07:09:42;8.20;;;6.15;;
11651;SDS011;5882;48.818;9.114;2023-04-16T07:12:27;8.15;;;5.00;;
11651;SDS011;5882;48.818;9.114;2023-04-16T07:15:12;9.15;;;5.85;;
11651;SDS011;5882;48.818;9.114;2023-04-16T07:17:57;9.00;;;5.97;;
11651;SDS011;5882;48.818;9.114;2023-04-16T07:20:42;11.23;;;7.18;;
11651;SDS011;5882;48.818;9.114;2023-04-16T07:23:27;8.90;;;6.30;;
11651;SDS011;5882;48.818;9.114;2023-04-16T07:26:13;8.43;;;5.97;;
11651;SDS011;5882;48.818;9.114;2023-04-16T07:28:59;8.80;;;6.15;;
11651;SDS011;5882;48.818;9.114;2023-04-16T07:31:44;8.23;;;6.53;;
11651;SDS011;5882;48.818;9.114;2023-04-16T07:34:29;6.88;;;5.13;;
11651;SDS011;5882;48.818;9.114;2023-04-16T07:37:14;8.70;;;6.13;;
11651;SDS011;5882;48.818;9.114;2023-04-16T07:39:59;8.93;;;5.40;;
11651;SDS011;5882;48.818;9.114;2023-04-16T07:42:45;8.50;;;5.55;;
11651;SDS011;5882;48.818;9.114;2023-04-16T07:45:31;6.43;;;4.90;;
11651;SDS011;5882;48.818;9.114;2023-04-16T07:48:16;7.57;;;5.60;;
11651;SDS011;5882;48.818;9.114;2023-04-16T07:51:01;8.02;;;6.13;;
11651;SDS011;5882;48.818;9.114;2023-04-16T07:53:46;7.63;;;5.82;;
11651;SDS011;5882;48.818;9.114;2023-04-16T07:56:31;7.70;;;6.03;;
11651;SDS011;5882;48.818;9.114;2023-04-16T07:59:17;10.00;;;6.88;;
11651;SDS011;5882;48.818;9.114;2023-04-16T08:02:02;7.95;;;5.55;;
11651;SDS011;5882;48.818;9.114;2023-04-16T08:04:49;8.55;;;5.78;;
11651;SDS011;5882;48.818;9.114;2023-04-16T08:07:33;8.95;;;5.68;;
11651;SDS011;5882;48.818;9.114;2023-04-16T08:10:18;7.07;;;5.40;;
11651;SDS011;5882;48.818;9.114;2023-04-16T08:13:03;9.10;;;5.75;;
11651;SDS011;5882;48.818;9.114;2023-04-16T08:15:50;7.82;;;5.50;;
11651;SDS011;5882;48.818;9.114;2023-04-16T08:18:35;7.32;;;5.70;;
11651;SDS011;5882;48.818;9.114;2023-04-16T08:21:20;7.93;;;5.50;;
11651;SDS011;5882;48.818;9.114;2023-04-16T08:24:05;7.97;;;5.82;;
11651;SDS011;5882;48.818;9.114;2023-04-16T08:26:50;8.02;;;5.90;;
11651;SDS011;5882;48.818;9.114;2023-04-16T08:29:35;8.15;;;6.13;;
11651;SDS011;5882;48.818;9.114;2023-04-16T08:32:31;7.07;;;5.30;;
11651;SDS011;5882;48.818;9.114;2023-04-16T08:35:16;7.65;;;5.78;;
11651;SDS011;5882;48.818;9.114;2023-04-16T08:38:01;8.63;;;5.75;;
11651;SDS011;5882;48.818;9.114;2023-04-16T08:40:47;6.85;;;5.32;;
11651;SDS011;5882;48.818;9.114;2023-04-16T08:43:32;7.50;;;5.70;;
11651;SDS011;5882;48.818;9.114;2023-04-16T08:46:17;9.60;;;6.00;;
11651;SDS011;5882;48.818;9.114;2023-04-16T08:49:06;7.50;;;5.45;;
11651;SDS011;5882;48.818;9.114;2023-04-16T08:51:52;7.45;;;5.55;;
11651;SDS011;5882;48.818;9.114;2023-04-16T08:54:40;6.93;;;5.57;;
11651;SDS011;5882;48.818;9.114;2023-04-16T08:57:28;7.55;;;4.85;;
11651;SDS011;5882;48.818;9.114;2023-04-16T09:00:15;7.05;;;5.28;;
11651;SDS011;5882;48.818;9.114;2023-04-16T09:03:01;5.57;;;4.47;;
11651;SDS011;5882;48.818;9.114;2023-04-16T09:05:54;6.95;;;4.93;;
11651;SDS011;5882;48.818;9.114;2023-04-16T09:08:40;7.05;;;5.40;;
11651;SDS011;5882;48.818;9.114;2023-04-16T09:11:27;7.95;;;5.80;;
11651;SDS011;5882;48.818;9.114;2023-04-16T09:14:12;7.13;;;5.30;;
11651;SDS011;5882;48.818;9.114;2023-04-16T09:16:59;8.98;;;5.85;;
11651;SDS011;5882;48.818;9.114;2023-04-16T09:19:45;7.68;;;5.05;;
11651;SDS011;5882;48.818;9.114;2023-04-16T09:22:31;6.10;;;4.47;;
11651;SDS011;5882;48.818;9.114;2023-04-16T09:25:16;10.40;;;7.13;;
11651;SDS011;5882;48.818;9.114;2023-04-16T09:28:03;7.70;;;5.55;;
11651;SDS011;5882;48.818;9.114;2023-04-16T09:30:48;8.27;;;5.10;;
11651;SDS011;5882;48.818;9.114;2023-04-16T09:33:34;7.57;;;5.55;;
11651;SDS011;5882;48.818;9.114;2023-04-16T09:36:21;7.20;;;5.20;;
11651;SDS011;5882;48.818;9.114;2023-04-16T09:39:08;9.45;;;5.40;;
11651;SDS011;5882;48.818;9.114;2023-04-16T09:42:04;8.43;;;5.03;;
11651;SDS011;5882;48.818;9.114;2023-04-16T09:44:49;7.50;;;4.68;;
11651;SDS011;5882;48.818;9.114;2023-04-16T09:47:38;7.75;;;5.50;;
11651;SDS011;5882;48.818;9.114;2023-04-16T09:50:25;7.53;;;5.53;;
11651;SDS011;5882;48.818;9.114;2023-04-16T09:53:10;10.60;;;5.43;;
11651;SDS011;5882;48.818;9.114;2023-04-16T09:55:56;7.75;;;5.40;;
11651;SDS011;5882;48.818;9.114;2023-04-16T09:58:41;8.20;;;5.82;;
11651;SDS011;5882;48.818;9.114;2023-04-16T10:01:26;7.38;;;4.75;;
11651;SDS011;5882;48.818;9.114;2023-04-16T10:04:11;7.28;;;5.47;;
11651;SDS011;5882;48.818;9.114;2023-04-16T10:07:03;8.02;;;5.10;;
11651;SDS011;5882;48.818;9.114;2023-04-16T10:09:49;7.28;;;5.10;;
11651;SDS011;5882;48.818;9.114;2023-04-16T10:12:36;6.88;;;5.28;;
11651;SDS011;5882;48.818;9.114;2023-04-16T10:15:21;9.48;;;5.93;;
11651;SDS011;5882;48.818;9.114;2023-04-16T10:18:06;7.05;;;5.28;;
11651;SDS011;5882;48.818;9.114;2023-04-16T10:20:52;8.43;;;6.18;;
11651;SDS011;5882;48.818;9.114;2023-04-16T10:23:37;6.65;;;5.28;;
11651;SDS011;5882;48.818;9.114;2023-04-16T10:26:22;8.23;;;5.82;;
11651;SDS011;5882;48.818;9.114;2023-04-16T10:29:09;8.75;;;5.82;;
11651;SDS011;5882;48.818;9.114;2023-04-16T10:31:55;9.07;;;5.80;;
11651;SDS011;5882;48.818;9.114;2023-04-16T10:34:41;7.90;;;4.95;;
11651;SDS011;5882;48.818;9.114;2023-04-16T10:37:30;6.57;;;4.97;;
11651;SDS011;5882;48.818;9.114;2023-04-16T10:40:22;8.35;;;5.60;;
11651;SDS011;5882;48.818;9.114;2023-04-16T10:43:10;8.45;;;5.95;;
11651;SDS011;5882;48.818;9.114;2023-04-16T10:49:10;9.73;;;6.13;;
11651;SDS011;5882;48.818;9.114;2023-04-16T10:51:57;7.40;;;4.97;;
11651;SDS011;5882;48.818;9.114;2023-04-16T10:54:50;6.97;;;4.32;;
11651;SDS011;5882;48.818;9.114;2023-04-16T10:57:38;6.38;;;4.32;;
11651;SDS011;5882;48.818;9.114;2023-04-16T11:00:23;6.88;;;5.10;;
11651;SDS011;5882;48.818;9.114;2023-04-16T11:03:08;6.82;;;4.32;;
11651;SDS011;5882;48.818;9.114;2023-04-16T11:05:55;6.45;;;4.68;;
11651;SDS011;5882;48.818;9.114;2023-04-16T11:08:53;5.07;;;4.00;;
11651;SDS011;5882;48.818;9.114;2023-04-16T11:11:39;5.93;;;3.83;;
11651;SDS011;5882;48.818;9.114;2023-04-16T11:14:24;7.13;;;4.85;;
11651;SDS011;5882;48.818;9.114;2023-04-16T11:17:09;6.07;;;3.55;;
11651;SDS011;5882;48.818;9.114;2023-04-16T11:19:54;6.65;;;4.13;;
11651;SDS011;5882;48.818;9.114;2023-04-16T11:22:41;6.45;;;3.78;;
11651;SDS011;5882;48.818;9.114;2023-04-16T11:25:28;5.90;;;3.75;;
11651;SDS011;5882;48.818;9.114;2023-04-16T11:28:14;5.15;;;3.25;;
11651;SDS011;5882;48.818;9.114;2023-04-16T11:31:00;4.40;;;3.67;;
11651;SDS011;5882;48.818;9.114;2023-04-16T11:33:54;3.88;;;3.40;;
11651;SDS011;5882;48.818;9.114;2023-04-16T11:36:42;6.10;;;3.78;;
11651;SDS011;5882;48.818;9.114;2023-04-16T11:39:29;3.90;;;3.50;;
11651;SDS011;5882;48.818;9.114;2023-04-16T11:42:17;3.60;;;3.15;;
11651;SDS011;5882;48.818;9.114;2023-04-16T11:45:02;3.95;;;3.08;;
11651;SDS011;5882;48.818;9.114;2023-04-16T11:47:48;3.60;;;3.03;;
11651;SDS011;5882;48.818;9.114;2023-04-16T11:50:34;4.70;;;3.08;;
11651;SDS011;5882;48.818;9.114;2023-04-16T11:53:20;4.55;;;3.15;;
11651;SDS011;5882;48.818;9.114;2023-04-16T11:56:07;4.93;;;3.80;;
11651;SDS011;5882;48.818;9.114;2023-04-16T11:59:04;3.67;;;3.05;;
11651;SDS011;5882;48.818;9.114;2023-04-16T12:01:50;4.10;;;3.22;;
11651;SDS011;5882;48.818;9.114;2023-04-16T12:04:37;5.07;;;3.78;;
11651;SDS011;5882;48.818;9.114;2023-04-16T12:07:22;4.38;;;3.38;;
11651;SDS011;5882;48.818;9.114;2023-04-16T12:10:10;4.68;;;3.05;;
11651;SDS011;5882;48.818;9.114;2023-04-16T12:13:09;4.88;;;3.60;;
11651;SDS011;5882;48.818;9.114;2023-04-16T12:15:55;3.33;;;3.03;;
11651;SDS011;5882;48.818;9.114;2023-04-16T12:18:44;4.40;;;3.47;;
11651;SDS011;5882;48.818;9.114;2023-04-16T12:21:42;2.72;;;2.15;;
11651;SDS011;5882;48.818;9.114;2023-04-16T12:24:30;4.05;;;2.88;;
11651;SDS011;5882;48.818;9.114;2023-04-16T12:27:15;2.33;;;2.00;;
11651;SDS011;5882;48.818;9.114;2023-04-16T12:30:03;3.33;;;2.88;;
11651;SDS011;5882;48.818;9.114;2023-04-16T12:32:49;3.35;;;2.88;;
11651;SDS011;5882;48.818;9.114;2023-04-16T12:35:35;6.65;;;4.20;;
11651;SDS011;5882;48.818;9.114;2023-04-16T12:38:20;3.33;;;2.97;;
11651;SDS011;5882;48.818;9.114;2023-04-16T12:41:05;3.53;;;2.90;;
11651;SDS011;5882;48.818;9.114;2023-04-16T12:43:50;2.70;;;2.42;;
11651;SDS011;5882;48.818;9.114;2023-04-16T12:46:37;3.63;;;2.70;;
11651;SDS011;5882;48.818;9.114;2023-04-16T12:49:22;3.92;;;3.00;;
11651;SDS011;5882;48.818;9.114;2023-04-16T12:52:07;3.10;;;2.78;;
11651;SDS011;5882;48.818;9.114;2023-04-16T12:54:52;5.65;;;4.80;;
11651;SDS011;5882;48.818;9.114;2023-04-16T12:57:37;3.83;;;2.83;;
11651;SDS011;5882;48.818;9.114;2023-04-16T13:00:22;3.83;;;3.20;;
11651;SDS011;5882;48.818;9.114;2023-04-16T13:03:09;4.75;;;3.22;;
11651;SDS011;5882;48.818;9.114;2023-04-16T13:05:54;3.13;;;2.63;;
11651;SDS011;5882;48.818;9.114;2023-04-16T13:08:39;4.45;;;3.28;;
11651;SDS011;5882;48.818;9.114;2023-04-16T13:11:24;4.15;;;2.95;;
11651;SDS011;5882;48.818;9.114;2023-04-16T13:14:10;3.50;;;2.95;;
11651;SDS011;5882;48.818;9.114;2023-04-16T13:16:55;3.83;;;3.20;;
11651;SDS011;5882;48.818;9.114;2023-04-16T13:19:42;3.88;;;3.13;;
11651;SDS011;5882;48.818;9.114;2023-04-16T13:22:27;3.97;;;3.58;;
11651;SDS011;5882;48.818;9.114;2023-04-16T13:25:12;3.85;;;3.05;;
11651;SDS011;5882;48.818;9.114;2023-04-16T13:27:57;4.25;;;3.08;;
11651;SDS011;5882;48.818;9.114;2023-04-16T13:30:42;4.10;;;3.20;;
11651;SDS011;5882;48.818;9.114;2023-04-16T13:33:27;3.50;;;3.20;;
11651;SDS011;5882;48.818;9.114;2023-04-16T13:36:14;4.63;;;3.63;;
11651;SDS011;5882;48.818;9.114;2023-04-16T13:38:59;2.95;;;2.58;;
11651;SDS011;5882;48.818;9.114;2023-04-16T13:41:45;6.53;;;3.35;;
11651;SDS011;5882;48.818;9.114;2023-04-16T13:44:32;4.22;;;3.10;;
11651;SDS011;5882;48.818;9.114;2023-04-16T13:47:18;4.45;;;3.05;;
11651;SDS011;5882;48.818;9.114;2023-04-16T13:50:03;3.33;;;3.03;;
11651;SDS011;5882;48.818;9.114;2023-04-16T13:52:49;4.53;;;3.47;;
11651;SDS011;5882;48.818;9.114;2023-04-16T13:55:34;4.30;;;3.33;;
11651;SDS011;5882;48.818;9.114;2023-04-16T13:58:20;4.20;;;3.03;;
11651;SDS011;5882;48.818;9.114;2023-04-16T14:01:05;4.20;;;3.42;;
11651;SDS011;5882;48.818;9.114;2023-04-16T14:03:51;5.00;;;3.67;;
11651;SDS011;5882;48.818;9.114;2023-04-16T14:06:36;5.00;;;3.60;;
11651;SDS011;5882;48.818;9.114;2023-04-16T14:09:22;4.25;;;3.05;;
11651;SDS011;5882;48.818;9.114;2023-04-16T14:12:07;6.20;;;3.92;;
11651;SDS011;5882;48.818;9.114;2023-04-16T14:14:53;5.15;;;3.35;;
11651;SDS011;5882;48.818;9.114;2023-04-16T14:17:47;5.32;;;3.78;;
11651;SDS011;5882;48.818;9.114;2023-04-16T14:20:32;3.88;;;3.28;;
11651;SDS011;5882;48.818;9.114;2023-04-16T14:25:47;6.80;;;4.10;;
11651;SDS011;5882;48.818;9.114;2023-04-16T14:28:36;5.15;;;4.18;;
11651;SDS011;5882;48.818;9.114;2023-04-16T14:31:22;4.70;;;3.63;;
11651;SDS011;5882;48.818;9.114;2023-04-16T14:34:08;5.97;;;4.40;;
11651;SDS011;5882;48.818;9.114;2023-04-16T14:36:53;5.13;;;4.32;;
11651;SDS011;5882;48.818;9.114;2023-04-16T14:53:18;6.13;;;5.03;;
11651;SDS011;5882;48.818;9.114;2023-04-16T14:56:09;5.10;;;3.92;;
11651;SDS011;5882;48.818;9.114;2023-04-16T14:58:55;5.55;;;4.43;;
11651;SDS011;5882;48.818;9.114;2023-04-16T15:01:41;5.80;;;4.32;;
11651;SDS011;5882;48.818;9.114;2023-04-16T15:04:26;5.15;;;3.78;;
11651;SDS011;5882;48.818;9.114;2023-04-16T15:07:11;6.38;;;4.75;;
11651;SDS011;5882;48.818;9.114;2023-04-16T15:09:58;6.72;;;5.03;;
11651;SDS011;5882;48.818;9.114;2023-04-16T15:12:43;7.07;;;5.25;;
11651;SDS011;5882;48.818;9.114;2023-04-16T15:45:44;5.35;;;4.43;;
11651;SDS011;5882;48.818;9.114;2023-04-16T15:48:29;6.00;;;3.83;;
11651;SDS011;5882;48.818;9.114;2023-04-16T15:51:14;5.10;;;3.80;;
11651;SDS011;5882;48.818;9.114;2023-04-16T15:53:59;5.60;;;4.68;;
11651;SDS011;5882;48.818;9.114;2023-04-16T15:56:44;7.10;;;4.68;;
11651;SDS011;5882;48.818;9.114;2023-04-16T15:59:29;6.60;;;5.63;;
11651;SDS011;5882;48.818;9.114;2023-04-16T16:02:16;8.10;;;5.75;;
11651;SDS011;5882;48.818;9.114;2023-04-16T16:05:01;7.00;;;5.35;;
11651;SDS011;5882;48.818;9.114;2023-04-16T16:07:47;7.38;;;4.90;;
11651;SDS011;5882;48.818;9.114;2023-04-16T16:10:32;8.13;;;5.68;;
11651;SDS011;5882;48.818;9.114;2023-04-16T16:13:18;8.32;;;5.25;;
11651;SDS011;5882;48.818;9.114;2023-04-16T16:16:03;10.00;;;6.97;;
11651;SDS011;5882;48.818;9.114;2023-04-16T16:18:50;7.55;;;5.63;;
11651;SDS011;5882;48.818;9.114;2023-04-16T16:21:35;9.63;;;6.88;;
11651;SDS011;5882;48.818;9.114;2023-04-16T16:24:20;8.50;;;6.32;;
11651;SDS011;5882;48.818;9.114;2023-04-16T16:27:05;9.38;;;6.80;;
11651;SDS011;5882;48.818;9.114;2023-04-16T16:29:50;6.05;;;4.47;;
11651;SDS011;5882;48.818;9.114;2023-04-16T16:32:35;10.27;;;7.30;;
11651;SDS011;5882;48.818;9.114;2023-04-16T16:35:25;10.65;;;7.07;;
11651;SDS011;5882;48.818;9.114;2023-04-16T16:38:09;10.80;;;7.10;;
11651;SDS011;5882;48.818;9.114;2023-04-16T16:40:54;7.90;;;6.57;;
11651;SDS011;5882;48.818;9.114;2023-04-16T16:43:40;9.75;;;7.32;;
11651;SDS011;5882;48.818;9.114;2023-04-16T16:46:24;10.15;;;6.68;;
11651;SDS011;5882;48.818;9.114;2023-04-16T16:49:09;11.07;;;6.53;;
11651;SDS011;5882;48.818;9.114;2023-04-16T16:51:56;8.48;;;6.95;;
11651;SDS011;5882;48.818;9.114;2023-04-16T16:54:41;10.07;;;6.25;;
11651;SDS011;5882;48.818;9.114;2023-04-16T16:57:26;11.00;;;6.82;;
11651;SDS011;5882;48.818;9.114;2023-04-16T17:00:12;8.43;;;6.40;;
11651;SDS011;5882;48.818;9.114;2023-04-16T17:02:58;9.93;;;7.38;;
11651;SDS011;5882;48.818;9.114;2023-04-16T17:05:43;7.78;;;5.50;;
11651;SDS011;5882;48.818;9.114;2023-04-16T17:08:30;12.55;;;7.05;;
11651;SDS011;5882;48.818;9.114;2023-04-16T17:11:15;9.02;;;6.15;;
11651;SDS011;5882;48.818;9.114;2023-04-16T17:14:00;9.70;;;6.47;;
11651;SDS011;5882;48.818;9.114;2023-04-16T17:16:45;9.20;;;6.55;;
11651;SDS011;5882;48.818;9.114;2023-04-16T17:19:32;9.25;;;6.25;;
11651;SDS011;5882;48.818;9.114;2023-04-16T17:22:17;9.52;;;6.88;;
11651;SDS011;5882;48.818;9.114;2023-04-16T17:25:04;8.68;;;6.25;;
11651;SDS011;5882;48.818;9.114;2023-04-16T17:27:50;9.43;;;6.60;;
11651;SDS011;5882;48.818;9.114;2023-04-16T17:30:35;9.82;;;7.38;;
11651;SDS011;5882;48.818;9.114;2023-04-16T17:33:22;9.88;;;7.38;;
11651;SDS011;5882;48.818;9.114;2023-04-16T17:36:07;10.18;;;8.00;;
11651;SDS011;5882;48.818;9.114;2023-04-16T17:38:52;12.30;;;7.65;;
11651;SDS011;5882;48.818;9.114;2023-04-16T17:41:38;11.18;;;6.93;;
11651;SDS011;5882;48.818;9.114;2023-04-16T17:44:24;9.80;;;6.75;;